createdAt,value
2023-05-02T00:02:18.712Z,8.17
2023-05-02T00:04:46.995Z,8.43
2023-05-02T00:07:15.429Z,8.16
2023-05-02T00:09:43.726Z,8.06
2023-05-02T00:12:11.886Z,7.92
2023-05-02T00:14:39.989Z,7.59
2023-05-02T00:17:08.289Z,7.61
2023-05-02T00:19:40.973Z,7.73
2023-05-02T00:22:09.226Z,7.49
2023-05-02T00:24:37.466Z,7.49
2023-05-02T00:27:06.220Z,7.20
2023-05-02T00:29:34.461Z,7.25
2023-05-02T00:32:02.905Z,7.47
2023-05-02T00:34:31.734Z,7.08
2023-05-02T00:37:01.466Z,7.20
2023-05-02T00:39:29.667Z,7.10
2023-05-02T00:41:58.682Z,7.07
2023-05-02T00:44:26.971Z,7.06
2023-05-02T00:46:55.876Z,7.20
2023-05-02T00:49:24.822Z,7.38
2023-05-02T00:51:54.351Z,7.16
2023-05-02T00:54:24.136Z,7.34
2023-05-02T00:56:52.424Z,7.62
2023-05-02T00:59:21.234Z,7.87
2023-05-02T01:02:06.675Z,7.81
2023-05-02T01:04:51.617Z,7.91
2023-05-02T01:07:37.042Z,7.63
2023-05-02T01:10:20.563Z,7.59
2023-05-02T01:12:57.834Z,7.77
2023-05-02T01:15:26.722Z,7.64
2023-05-02T01:17:57.269Z,7.56
2023-05-02T01:20:30.244Z,7.62
2023-05-02T01:23:11.519Z,7.71
2023-05-02T01:26:02.352Z,7.65
2023-05-02T01:28:48.243Z,7.63
2023-05-02T01:31:17.776Z,7.43
2023-05-02T01:33:48.999Z,7.48
2023-05-02T01:36:18.509Z,7.29
2023-05-02T01:38:47.892Z,7.38
2023-05-02T01:41:17.177Z,7.54
2023-05-02T01:43:48.196Z,7.47
2023-05-02T01:46:16.792Z,7.56
2023-05-02T01:48:49.619Z,7.57
2023-05-02T01:51:19.962Z,7.36
2023-05-02T01:53:50.933Z,7.25
2023-05-02T01:56:21.444Z,7.21
2023-05-02T01:58:54.134Z,7.22
2023-05-02T02:01:24.939Z,7.28
2023-05-02T02:03:55.880Z,7.36
2023-05-02T02:06:25.330Z,7.67
2023-05-02T02:08:53.587Z,7.52
2023-05-02T02:11:28.538Z,7.24
2023-05-02T02:14:06.085Z,7.04
2023-05-02T02:16:39.101Z,6.95
2023-05-02T02:19:11.455Z,7.03
2023-05-02T02:21:41.591Z,7.10
2023-05-02T02:24:11.122Z,6.96
2023-05-02T02:26:39.491Z,7.05
2023-05-02T02:29:10.732Z,7.04
2023-05-02T02:31:39.872Z,6.82
2023-05-02T02:34:08.704Z,7.22
2023-05-02T02:36:46.129Z,7.15
2023-05-02T02:39:29.470Z,7.28
2023-05-02T02:42:15.298Z,7.06
2023-05-02T02:44:56.221Z,7.14
2023-05-02T02:47:32.835Z,7.23
2023-05-02T02:50:17.740Z,7.05
2023-05-02T02:52:56.669Z,7.08
2023-05-02T02:55:38.566Z,7.04
2023-05-02T02:58:21.182Z,7.17
2023-05-02T03:00:51.781Z,7.22
2023-05-02T03:03:25.045Z,7.15
2023-05-02T03:05:53.350Z,7.11
2023-05-02T03:08:21.962Z,7.00
2023-05-02T03:10:50.222Z,7.05
2023-05-02T03:13:18.817Z,6.86
2023-05-02T03:16:35.176Z,6.94
2023-05-02T03:19:05.006Z,6.98
2023-05-02T03:21:34.505Z,7.12
2023-05-02T03:24:11.021Z,6.97
2023-05-02T03:26:39.358Z,6.75
2023-05-02T03:29:10.831Z,6.79
2023-05-02T03:31:44.037Z,6.68
2023-05-02T03:34:13.710Z,6.72
2023-05-02T03:36:43.089Z,6.69
2023-05-02T03:39:12.319Z,6.45
2023-05-02T03:41:42.401Z,6.41
2023-05-02T03:44:13.488Z,6.59
2023-05-02T03:46:43.405Z,6.45
2023-05-02T03:49:13.685Z,6.44
2023-05-02T03:51:44.688Z,6.30
2023-05-02T03:54:14.181Z,6.41
2023-05-02T03:56:45.052Z,6.48
2023-05-02T03:59:22.510Z,6.40
2023-05-02T04:01:52.743Z,6.38
2023-05-02T04:04:26.180Z,6.48
2023-05-02T04:06:56.264Z,6.33
2023-05-02T04:09:25.559Z,6.27
2023-05-02T04:12:20.074Z,6.33
2023-05-02T04:14:51.110Z,6.45
2023-05-02T04:17:22.067Z,6.28
2023-05-02T04:19:51.582Z,5.93
2023-05-02T04:22:22.006Z,6.27
2023-05-02T04:24:54.818Z,6.22
2023-05-02T04:27:23.830Z,6.45
2023-05-02T04:29:53.393Z,6.47
2023-05-02T04:32:23.372Z,6.50
2023-05-02T04:34:52.124Z,6.36
2023-05-02T04:37:21.789Z,6.62
2023-05-02T04:39:51.550Z,6.56
2023-05-02T04:42:24.303Z,6.43
2023-05-02T04:45:02.073Z,6.73
2023-05-02T04:47:31.800Z,6.73
2023-05-02T04:50:01.464Z,6.75
2023-05-02T04:52:31.079Z,6.63
2023-05-02T04:55:00.783Z,6.57
2023-05-02T04:57:29.630Z,6.75
2023-05-02T05:00:01.054Z,6.91
2023-05-02T05:02:31.544Z,6.70
2023-05-02T05:05:02.062Z,6.59
2023-05-02T05:07:30.533Z,6.46
2023-05-02T05:09:59.534Z,6.09
2023-05-02T05:12:31.673Z,6.10
2023-05-02T05:15:00.270Z,5.82
2023-05-02T05:17:31.444Z,5.99
2023-05-02T05:20:00.794Z,5.87
2023-05-02T05:22:29.212Z,6.15
2023-05-02T05:24:57.511Z,6.18
2023-05-02T05:27:30.380Z,6.05
2023-05-02T05:29:59.290Z,6.29
2023-05-02T05:32:29.061Z,6.43
2023-05-02T05:34:58.695Z,6.34
2023-05-02T05:37:28.836Z,6.32
2023-05-02T05:39:59.144Z,6.41
2023-05-02T05:42:27.558Z,6.46
2023-05-02T05:45:00.642Z,6.61
2023-05-02T05:47:29.257Z,6.88
2023-05-02T05:50:00.848Z,7.22
2023-05-02T05:52:31.381Z,7.23
2023-05-02T05:55:02.072Z,6.87
2023-05-02T05:57:31.080Z,7.02
2023-05-02T05:59:59.577Z,7.24
2023-05-02T06:02:28.007Z,7.35
2023-05-02T06:04:57.384Z,7.51
2023-05-02T06:07:28.496Z,7.39
2023-05-02T06:09:56.680Z,7.27
2023-05-02T06:12:24.892Z,7.60
2023-05-02T06:14:53.696Z,7.70
2023-05-02T06:17:22.795Z,7.89
2023-05-02T06:19:51.352Z,7.79
2023-05-02T06:22:19.611Z,8.06
2023-05-02T06:24:49.069Z,8.21
2023-05-02T06:27:17.589Z,8.05
2023-05-02T06:29:45.637Z,8.00
2023-05-02T06:32:13.837Z,7.95
2023-05-02T06:34:41.873Z,8.04
2023-05-02T06:37:10.189Z,7.71
2023-05-02T06:39:38.383Z,7.66
2023-05-02T06:42:07.918Z,8.06
2023-05-02T06:44:36.712Z,8.04
2023-05-02T06:47:06.342Z,8.00
2023-05-02T06:49:34.734Z,7.78
2023-05-02T06:52:02.838Z,8.14
2023-05-02T06:54:31.071Z,8.26
2023-05-02T06:57:00.449Z,8.37
2023-05-02T06:59:29.928Z,8.21
2023-05-02T07:01:58.070Z,8.46
2023-05-02T07:04:27.722Z,8.68
2023-05-02T07:06:56.021Z,8.61
2023-05-02T07:09:24.251Z,8.80
2023-05-02T07:11:52.325Z,8.83
2023-05-02T07:14:20.957Z,8.47
2023-05-02T07:16:54.391Z,8.35
2023-05-02T07:19:22.539Z,8.58
2023-05-02T07:21:50.681Z,8.25
2023-05-02T07:24:18.924Z,8.16
2023-05-02T07:26:47.120Z,8.18
2023-05-02T07:29:15.265Z,8.21
2023-05-02T07:31:43.628Z,8.19
2023-05-02T07:34:13.208Z,8.01
2023-05-02T07:36:41.403Z,8.30
2023-05-02T07:39:10.474Z,8.86
2023-05-02T07:41:38.695Z,9.17
2023-05-02T07:44:06.959Z,9.09
2023-05-02T07:46:35.307Z,9.05
2023-05-02T07:49:06.251Z,9.40
2023-05-02T07:51:35.793Z,9.57
2023-05-02T07:54:04.076Z,9.31
2023-05-02T07:56:32.798Z,8.93
2023-05-02T07:59:00.868Z,9.46
2023-05-02T08:01:30.045Z,9.58
2023-05-02T08:03:58.434Z,9.30
2023-05-02T08:06:26.821Z,9.50
2023-05-02T08:08:56.340Z,9.40
2023-05-02T08:11:25.512Z,9.45
2023-05-02T08:13:53.888Z,9.13
2023-05-02T08:16:22.982Z,9.40
2023-05-02T08:18:51.130Z,9.86
2023-05-02T08:21:19.313Z,10.11
2023-05-02T08:23:47.447Z,10.07
2023-05-02T08:26:19.230Z,9.92
2023-05-02T08:28:47.814Z,9.57
2023-05-02T08:31:18.850Z,9.38
2023-05-02T08:33:47.210Z,9.75
2023-05-02T08:36:17.387Z,10.11
2023-05-02T08:38:46.779Z,10.85
2023-05-02T08:41:19.100Z,11.26
2023-05-02T08:43:50.432Z,10.62
2023-05-02T08:46:19.169Z,10.01
2023-05-02T08:48:49.103Z,9.89
2023-05-02T08:53:48.116Z,10.14
2023-05-02T08:56:17.607Z,10.33
2023-05-02T08:58:45.965Z,10.64
2023-05-02T09:01:18.208Z,10.46
2023-05-02T09:03:48.371Z,10.44
2023-05-02T09:06:19.041Z,10.98
2023-05-02T09:08:49.954Z,11.34
2023-05-02T09:11:21.409Z,11.55
2023-05-02T09:13:51.029Z,11.40
2023-05-02T09:16:22.757Z,11.22
2023-05-02T09:18:52.364Z,11.00
2023-05-02T09:21:22.489Z,10.36
2023-05-02T09:23:53.120Z,10.51
2023-05-02T09:26:24.896Z,11.06
2023-05-02T09:28:54.484Z,11.50
2023-05-02T09:31:49.611Z,12.12
2023-05-02T09:34:18.279Z,13.00
2023-05-02T09:36:48.403Z,13.02
2023-05-02T09:39:18.865Z,13.54
2023-05-02T09:41:50.871Z,13.91
2023-05-02T09:44:20.851Z,13.88
2023-05-02T09:46:54.203Z,13.74
2023-05-02T09:49:41.931Z,13.63
2023-05-02T09:52:14.526Z,13.50
2023-05-02T09:54:43.085Z,13.41
2023-05-02T09:57:12.710Z,13.39
2023-05-02T09:59:41.829Z,13.45
2023-05-02T10:02:12.044Z,12.75
2023-05-02T10:04:41.918Z,12.45
2023-05-02T10:07:11.536Z,12.46
2023-05-02T10:09:45.899Z,11.82
2023-05-02T10:12:17.655Z,12.25
2023-05-02T10:14:51.542Z,12.73
2023-05-02T10:17:29.523Z,13.55
2023-05-02T10:20:02.140Z,14.69
2023-05-02T10:22:31.722Z,14.99
2023-05-02T10:25:02.189Z,14.88
2023-05-02T10:27:33.822Z,14.07
2023-05-02T10:30:04.352Z,13.80
2023-05-02T10:32:35.327Z,13.55
2023-05-02T10:35:06.629Z,13.19
2023-05-02T10:37:39.441Z,12.77
2023-05-02T10:40:12.416Z,12.50
2023-05-02T10:42:46.683Z,12.11
2023-05-02T10:45:33.339Z,12.14
2023-05-02T10:48:20.200Z,12.95
2023-05-02T10:50:51.272Z,13.42
2023-05-02T10:53:31.640Z,13.48
2023-05-02T10:56:22.282Z,13.47
2023-05-02T10:58:53.485Z,13.55
2023-05-02T11:01:36.979Z,13.35
2023-05-02T11:04:07.696Z,13.26
2023-05-02T11:06:37.362Z,12.88
2023-05-02T11:09:34.367Z,12.93
2023-05-02T11:12:04.889Z,13.42
2023-05-02T11:14:55.188Z,14.09
2023-05-02T11:17:23.428Z,14.22
2023-05-02T11:20:26.057Z,14.18
2023-05-02T11:22:56.463Z,14.48
2023-05-02T11:25:33.501Z,14.22
2023-05-02T11:28:02.711Z,13.55
2023-05-02T11:30:48.657Z,13.52
2023-05-02T11:33:21.973Z,12.80
2023-05-02T11:35:51.992Z,12.91
2023-05-02T11:38:23.738Z,12.50
2023-05-02T11:41:00.312Z,12.91
2023-05-02T11:43:32.851Z,12.89
2023-05-02T11:46:07.760Z,12.94
2023-05-02T11:48:46.126Z,12.85
2023-05-02T11:51:27.036Z,12.99
2023-05-02T11:53:59.040Z,13.24
2023-05-02T11:56:32.142Z,13.42
2023-05-02T11:59:06.694Z,13.85
2023-05-02T12:01:36.583Z,13.84
2023-05-02T12:04:12.050Z,13.40
2023-05-02T12:06:55.603Z,13.09
2023-05-02T12:09:24.798Z,13.17
2023-05-02T12:11:59.395Z,12.93
2023-05-02T12:14:35.968Z,12.98
2023-05-02T12:17:07.418Z,13.02
2023-05-02T12:19:37.944Z,13.37
2023-05-02T12:22:07.894Z,13.10
2023-05-02T12:24:43.570Z,12.74
2023-05-02T12:27:24.683Z,12.86
2023-05-02T12:29:54.154Z,12.75
2023-05-02T12:32:45.335Z,13.00
2023-05-02T12:35:30.598Z,13.40
2023-05-02T12:38:16.275Z,14.09
2023-05-02T12:40:57.667Z,13.86
2023-05-02T12:43:26.031Z,13.37
2023-05-02T12:46:13.876Z,13.12
2023-05-02T12:48:44.920Z,12.42
2023-05-02T12:51:28.539Z,12.28
2023-05-02T12:53:56.953Z,12.77
2023-05-02T12:56:27.700Z,12.55
2023-05-02T12:58:56.105Z,13.08
2023-05-02T13:01:24.433Z,13.37
2023-05-02T13:03:54.043Z,13.42
2023-05-02T13:06:22.317Z,13.60
2023-05-02T13:08:50.566Z,13.19
2023-05-02T13:11:21.781Z,12.85
2023-05-02T13:13:50.013Z,12.46
2023-05-02T13:16:18.488Z,12.89
2023-05-02T13:18:48.145Z,13.18
2023-05-02T13:21:20.243Z,12.92
2023-05-02T13:23:50.473Z,13.31
2023-05-02T13:26:18.671Z,13.98
2023-05-02T13:28:46.828Z,14.45
2023-05-02T13:31:15.250Z,14.39
2023-05-02T13:33:43.504Z,14.41
2023-05-02T13:36:18.839Z,14.08
2023-05-02T13:38:47.649Z,14.46
2023-05-02T13:41:15.776Z,14.90
2023-05-02T13:43:43.929Z,15.00
2023-05-02T13:46:13.335Z,14.70
2023-05-02T13:48:47.005Z,14.61
2023-05-02T13:51:15.184Z,14.84
2023-05-02T13:53:44.706Z,14.16
2023-05-02T13:56:12.959Z,14.29
2023-05-02T13:58:41.239Z,14.65
2023-05-02T14:01:09.770Z,14.32
2023-05-02T14:03:38.255Z,14.54
2023-05-02T14:06:06.733Z,14.47
2023-05-02T14:08:34.985Z,14.17
2023-05-02T14:11:09.412Z,13.99
2023-05-02T14:13:40.316Z,13.66
2023-05-02T14:16:09.035Z,13.56
2023-05-02T14:18:37.417Z,13.21
2023-05-02T14:21:06.357Z,13.60
2023-05-02T14:23:35.327Z,13.97
2023-05-02T14:26:12.669Z,14.21
2023-05-02T14:28:41.295Z,14.37
2023-05-02T14:31:09.743Z,14.50
2023-05-02T14:33:37.971Z,14.05
2023-05-02T14:36:06.816Z,14.45
2023-05-02T14:38:35.122Z,14.94
2023-05-02T14:41:05.962Z,14.91
2023-05-02T14:43:35.781Z,14.81
2023-05-02T14:46:04.213Z,14.21
2023-05-02T14:48:32.389Z,14.09
2023-05-02T14:51:04.106Z,14.13
2023-05-02T14:53:32.502Z,13.30
2023-05-02T14:56:00.757Z,14.03
2023-05-02T14:58:30.244Z,14.40
2023-05-02T15:00:58.529Z,14.74
2023-05-02T15:03:26.803Z,15.02
2023-05-02T15:05:55.270Z,15.49
2023-05-02T15:08:23.548Z,15.52
2023-05-02T15:10:51.889Z,15.21
2023-05-02T15:13:20.283Z,14.84
2023-05-02T15:15:49.847Z,14.68
2023-05-02T15:18:18.027Z,14.52
2023-05-02T15:20:46.320Z,14.80
2023-05-02T15:23:14.808Z,14.54
2023-05-02T15:25:42.958Z,14.72
2023-05-02T15:28:11.277Z,14.63
2023-05-02T15:30:39.635Z,14.36
2023-05-02T15:33:09.326Z,14.09
2023-05-02T15:35:37.875Z,13.52
2023-05-02T15:38:07.009Z,13.61
2023-05-02T15:40:35.647Z,13.62
2023-05-02T15:43:03.828Z,13.98
2023-05-02T15:45:32.369Z,14.43
2023-05-02T15:48:01.104Z,14.56
2023-05-02T15:50:30.649Z,14.47
2023-05-02T15:52:58.868Z,13.87
2023-05-02T15:55:27.147Z,13.30
2023-05-02T15:57:55.459Z,12.91
2023-05-02T16:00:26.191Z,12.71
2023-05-02T16:02:55.585Z,12.57
2023-05-02T16:05:23.858Z,12.72
2023-05-02T16:07:54.052Z,12.91
2023-05-02T16:10:22.724Z,12.91
2023-05-02T16:12:50.995Z,12.85
2023-05-02T16:15:19.190Z,13.12
2023-05-02T16:17:48.834Z,12.90
2023-05-02T16:20:17.814Z,12.78
2023-05-02T16:22:46.869Z,12.88
2023-05-02T16:25:18.678Z,12.60
2023-05-02T16:27:46.822Z,12.23
2023-05-02T16:30:17.511Z,11.89
2023-05-02T16:32:45.826Z,11.94
2023-05-02T16:35:15.963Z,11.60
2023-05-02T16:37:44.479Z,11.66
2023-05-02T16:40:13.632Z,11.40
2023-05-02T16:42:45.137Z,11.90
2023-05-02T16:45:13.386Z,12.20
2023-05-02T16:47:44.203Z,12.03
2023-05-02T16:50:12.726Z,12.11
2023-05-02T16:52:40.962Z,11.95
2023-05-02T16:55:09.931Z,11.91
2023-05-02T16:57:39.113Z,11.68
2023-05-02T17:00:14.825Z,11.56
2023-05-02T17:02:43.144Z,11.67
2023-05-02T17:05:12.281Z,11.46
2023-05-02T17:07:40.502Z,11.38
2023-05-02T17:10:11.219Z,11.04
2023-05-02T17:12:40.379Z,11.29
2023-05-02T17:15:11.393Z,11.24
2023-05-02T17:17:39.803Z,11.30
2023-05-02T17:20:10.063Z,11.42
2023-05-02T17:22:41.651Z,11.61
2023-05-02T17:25:11.183Z,11.42
2023-05-02T17:27:41.079Z,10.87
2023-05-02T17:30:15.200Z,10.37
2023-05-02T17:32:43.767Z,10.04
2023-05-02T17:35:14.854Z,9.95
2023-05-02T17:37:42.994Z,10.16
2023-05-02T17:40:12.689Z,10.33
2023-05-02T17:42:43.522Z,10.51
2023-05-02T17:45:17.967Z,10.37
2023-05-02T17:47:46.194Z,9.66
2023-05-02T17:50:14.398Z,9.62
2023-05-02T17:52:42.684Z,9.52
2023-05-02T17:55:13.973Z,9.58
2023-05-02T17:57:42.221Z,9.37
2023-05-02T18:00:12.127Z,9.07
2023-05-02T18:02:44.041Z,8.83
2023-05-02T18:05:12.832Z,8.91
2023-05-02T18:07:41.012Z,8.82
2023-05-02T18:10:10.160Z,8.45
2023-05-02T18:12:38.334Z,8.61
2023-05-02T18:15:09.414Z,8.56
2023-05-02T18:17:38.194Z,8.14
2023-05-02T18:20:10.221Z,8.30
2023-05-02T18:22:39.116Z,8.34
2023-05-02T18:25:08.593Z,8.44
2023-05-02T18:27:36.822Z,8.22
2023-05-02T18:30:09.868Z,8.22
2023-05-02T18:32:42.579Z,8.02
2023-05-02T18:35:12.761Z,7.89
2023-05-02T18:37:41.328Z,7.63
2023-05-02T18:40:13.379Z,7.51
2023-05-02T18:42:47.340Z,7.65
2023-05-02T18:45:20.459Z,7.54
2023-05-02T18:47:49.447Z,7.61
2023-05-02T18:50:23.384Z,7.35
2023-05-02T18:52:53.504Z,7.31
2023-05-02T18:55:25.444Z,7.27
2023-05-02T18:57:55.753Z,7.24
2023-05-02T19:00:25.876Z,7.17
2023-05-02T19:02:57.211Z,7.05
2023-05-02T19:05:28.726Z,6.58
2023-05-02T19:08:00.702Z,6.74
2023-05-02T19:10:31.013Z,6.57
2023-05-02T19:12:59.680Z,6.72
2023-05-02T19:15:28.094Z,6.75
2023-05-02T19:18:01.513Z,6.58
2023-05-02T19:20:33.463Z,6.32
2023-05-02T19:23:18.282Z,6.50
2023-05-02T19:25:50.513Z,6.47
2023-05-02T19:28:23.606Z,6.36
2023-05-02T19:30:57.688Z,6.34
2023-05-02T19:33:25.954Z,6.07
2023-05-02T19:35:58.530Z,5.94
2023-05-02T19:38:31.256Z,6.04
2023-05-02T19:41:02.844Z,5.80
2023-05-02T19:43:31.286Z,5.73
2023-05-02T19:45:59.871Z,5.76
2023-05-02T19:48:28.297Z,5.69
2023-05-02T19:50:57.895Z,5.70
2023-05-02T19:53:26.815Z,5.44
2023-05-02T19:55:54.925Z,5.30
2023-05-02T19:58:31.651Z,5.25
2023-05-02T20:01:01.164Z,5.28
2023-05-02T20:03:29.501Z,5.35
2023-05-02T20:05:59.099Z,5.00
2023-05-02T20:08:28.221Z,5.01
2023-05-02T20:10:57.903Z,5.05
2023-05-02T20:13:26.037Z,5.08
2023-05-02T20:15:55.187Z,5.00
2023-05-02T20:18:23.334Z,4.90
2023-05-02T20:20:51.531Z,4.97
2023-05-02T20:23:21.091Z,5.02
2023-05-02T20:25:49.284Z,4.84
2023-05-02T20:28:17.480Z,4.88
2023-05-02T20:30:45.682Z,4.82
2023-05-02T20:33:16.090Z,4.84
2023-05-02T20:35:45.076Z,4.80
2023-05-02T20:38:13.366Z,4.67
2023-05-02T20:40:43.629Z,4.63
2023-05-02T20:43:12.517Z,4.45
2023-05-02T20:45:40.762Z,4.57
2023-05-02T20:48:09.220Z,4.42
2023-05-02T20:50:40.664Z,4.53
2023-05-02T20:53:09.212Z,4.46
2023-05-02T20:55:37.471Z,4.32
2023-05-02T20:58:06.982Z,4.24
2023-05-02T21:00:35.534Z,4.21
2023-05-02T21:03:07.036Z,4.29
2023-05-02T21:05:35.249Z,4.27
2023-05-02T21:08:03.582Z,4.03
2023-05-02T21:10:31.902Z,4.01
2023-05-02T21:13:00.065Z,3.97
2023-05-02T21:15:30.079Z,3.95
2023-05-02T21:18:02.357Z,4.04
2023-05-02T21:20:30.660Z,4.01
2023-05-02T21:22:58.903Z,4.01
2023-05-02T21:25:27.494Z,3.95
2023-05-02T21:27:57.525Z,3.73
2023-05-02T21:30:25.795Z,3.51
2023-05-02T21:32:55.334Z,3.70
2023-05-02T21:35:23.516Z,3.56
2023-05-02T21:37:51.650Z,3.43
2023-05-02T21:40:22.563Z,3.56
2023-05-02T21:42:51.113Z,3.52
2023-05-02T21:45:19.384Z,3.44
2023-05-02T21:47:47.636Z,3.35
2023-05-02T21:50:17.161Z,3.40
2023-05-02T21:52:47.514Z,3.40
2023-05-02T21:55:17.936Z,3.40
2023-05-02T21:57:46.116Z,3.34
2023-05-02T22:00:17.303Z,3.29
2023-05-02T22:02:45.986Z,3.29
2023-05-02T22:05:17.999Z,3.09
2023-05-02T22:07:53.294Z,3.15
2023-05-02T22:10:22.064Z,3.15
2023-05-02T22:12:53.019Z,3.09
2023-05-02T22:15:21.169Z,3.06
2023-05-02T22:17:50.645Z,3.01
2023-05-02T22:20:20.213Z,2.94
2023-05-02T22:22:48.652Z,2.80
2023-05-02T22:25:16.807Z,2.92
2023-05-02T22:27:50.219Z,2.84
2023-05-02T22:30:18.519Z,2.62
2023-05-02T22:32:48.773Z,2.70
2023-05-02T22:35:18.054Z,2.66
2023-05-02T22:37:47.590Z,2.70
2023-05-02T22:40:16.508Z,2.59
2023-05-02T22:42:44.953Z,2.64
2023-05-02T22:45:13.816Z,2.63
2023-05-02T22:47:44.180Z,2.42
2023-05-02T22:50:16.018Z,2.57
2023-05-02T22:52:49.336Z,2.15
2023-05-02T22:55:18.000Z,2.35
2023-05-02T22:57:46.289Z,2.29
2023-05-02T23:00:15.338Z,2.10
2023-05-02T23:02:45.886Z,1.99
2023-05-02T23:05:14.247Z,2.23
2023-05-02T23:07:42.680Z,2.20
2023-05-02T23:10:15.312Z,2.28
2023-05-02T23:12:46.208Z,2.29
2023-05-02T23:15:14.452Z,2.30
2023-05-02T23:17:42.785Z,2.10
2023-05-02T23:20:19.415Z,2.22
2023-05-02T23:22:47.715Z,2.03
2023-05-02T23:25:17.227Z,2.21
2023-05-02T23:27:45.615Z,2.01
2023-05-02T23:30:14.254Z,2.02
2023-05-02T23:32:42.621Z,1.96
2023-05-02T23:35:12.813Z,2.01
2023-05-02T23:37:42.103Z,2.00
2023-05-02T23:40:11.345Z,1.97
2023-05-02T23:42:41.302Z,1.93
2023-05-02T23:45:11.072Z,1.87
2023-05-02T23:47:39.810Z,1.79
2023-05-02T23:50:11.869Z,1.91
2023-05-02T23:52:40.592Z,1.87
2023-05-02T23:55:11.450Z,1.88
2023-05-02T23:57:41.438Z,1.90
